Time;durP1;ratioP1;P1;durP2;ratioP2;P2;SDS_P1;SDS_P2;PMS_P1;PMS_P2;Temp;Humidity;BMP_temperature;BMP_pressure;BME280_temperature;BME280_humidity;BME280_pressure;Samples;Min_cycle;Max_cycle;Signal;HPM_P1;HPM_P2
2022/08/10 00:01:41;;;;;;;5.80;3.50;;;;;;;15.78;66.88;99293.29;105667;1280;25370;-79
2022/08/10 00:04:08;;;;;;;7.00;3.50;;;;;;;15.75;67.13;99301.21;105800;1280;30284;-80
2022/08/10 00:06:35;;;;;;;5.80;3.20;;;;;;;15.71;67.17;99305.60;106413;1280;137134;-83
2022/08/10 00:09:02;;;;;;;4.10;2.90;;;;;;;15.70;67.19;99304.93;105908;1280;23951;-79
2022/08/10 00:11:29;;;;;;;5.60;2.90;;;;;;;15.70;67.09;99306.29;106011;1280;137913;-83
2022/08/10 00:13:56;;;;;;;5.00;2.80;;;;;;;15.72;67.20;99302.05;105992;1279;25379;-80
2022/08/10 00:16:23;;;;;;;4.80;3.40;;;;;;;15.72;67.23;99301.45;105928;1279;22566;-79
2022/08/10 00:18:50;;;;;;;5.90;3.30;;;;;;;15.73;67.19;99298.52;105820;1279;139642;-79
2022/08/10 00:21:17;;;;;;;5.50;3.00;;;;;;;15.72;67.20;99289.35;106042;1279;22625;-78
2022/08/10 00:23:44;;;;;;;5.70;3.00;;;;;;;15.71;67.26;99287.53;105725;1280;137115;-79
2022/08/10 00:26:24;;;;;;;4.50;2.70;;;;;;;15.70;67.37;99292.30;105908;1280;22535;-77
2022/08/10 00:28:51;;;;;;;5.80;3.10;;;;;;;15.67;67.35;99288.42;105871;1280;137225;-77
2022/08/10 00:31:18;;;;;;;4.70;3.00;;;;;;;15.65;67.48;99291.36;106101;1280;23321;-79
2022/08/10 00:33:45;;;;;;;5.70;3.20;;;;;;;15.64;67.43;99290.90;106127;1279;22567;-78
2022/08/10 00:36:12;;;;;;;4.40;2.50;;;;;;;15.64;67.52;99286.45;105879;1279;138209;-79
2022/08/10 00:38:39;;;;;;;5.30;2.80;;;;;;;15.64;67.43;99285.91;105830;1279;22703;-78
2022/08/10 00:41:06;;;;;;;5.10;3.20;;;;;;;15.65;67.37;99288.77;105919;1279;138541;-78
2022/08/10 00:43:33;;;;;;;5.60;2.90;;;;;;;15.66;67.46;99291.48;106398;1279;22678;-78
2022/08/10 00:46:00;;;;;;;6.60;2.70;;;;;;;15.68;67.40;99295.45;105990;1280;25410;-78
2022/08/10 00:48:28;;;;;;;3.50;2.60;;;;;;;15.68;67.40;99297.05;105918;1280;137425;-78
2022/08/10 00:50:58;;;;;;;5.40;3.10;;;;;;;15.70;67.40;99301.02;106155;1280;22702;-78
2022/08/10 00:53:27;;;;;;;6.70;2.90;;;;;;;15.71;67.14;99305.15;106030;1279;137202;-77
2022/08/10 00:55:54;;;;;;;;;;;;;;;15.72;67.25;99306.64;106428;1279;22743;-77
2022/08/10 00:58:22;;;;;;;6.10;3.40;;;;;;;15.72;67.16;99309.95;106058;1279;22541;-78
2022/08/10 01:00:49;;;;;;;3.50;3.20;;;;;;;15.70;67.01;99308.27;105757;1279;137158;-78
2022/08/10 01:03:16;;;;;;;4.00;2.80;;;;;;;15.68;67.04;99305.45;105821;1280;22624;-78
2022/08/10 01:06:00;;;;;;;4.80;2.90;;;;;;;15.66;67.04;99304.66;105918;1280;138077;-78
2022/08/10 01:08:30;;;;;;;7.80;3.10;;;;;;;15.61;66.99;99302.63;106044;1280;22621;-78
2022/08/10 01:11:18;;;;;;;4.40;2.70;;;;;;;15.59;67.41;99304.13;106190;1280;137500;-78
2022/08/10 01:14:01;;;;;;;5.60;3.30;;;;;;;15.58;67.31;99300.23;106085;1279;22614;-80
2022/08/10 01:16:42;;;;;;;5.30;3.10;;;;;;;15.57;67.72;99298.19;106277;1279;25309;-78
2022/08/10 01:19:32;;;;;;;6.40;3.00;;;;;;;15.54;67.44;99298.32;106316;1279;137048;-78
2022/08/10 01:22:25;;;;;;;6.10;3.20;;;;;;;15.49;67.48;99295.35;106020;1279;25271;-78
2022/08/10 01:25:16;;;;;;;3.90;2.90;;;;;;;15.40;67.71;99295.52;106027;1280;137239;-78
2022/08/10 01:27:59;;;;;;;5.40;3.20;;;;;;;15.33;68.10;99291.66;106145;1279;22563;-78
2022/08/10 01:30:31;;;;;;;3.10;2.30;;;;;;;15.30;67.98;99288.89;105989;1280;137805;-78
2022/08/10 01:33:00;;;;;;;4.80;2.80;;;;;;;15.31;68.09;99288.59;106191;1280;22565;-79
2022/08/10 01:35:41;;;;;;;5.30;3.10;;;;;;;15.30;68.22;99288.88;105823;1280;139066;-78
2022/08/10 01:38:26;;;;;;;3.70;2.80;;;;;;;15.30;68.35;99294.70;106234;1279;22557;-78
2022/08/10 01:41:04;;;;;;;5.30;3.00;;;;;;;15.30;68.49;99294.64;105840;1279;137392;-78
2022/08/10 01:43:33;;;;;;;5.30;3.20;;;;;;;15.27;68.26;99293.55;106065;1279;24299;-78
2022/08/10 01:46:04;;;;;;;5.80;3.20;;;;;;;15.25;68.58;99292.54;106332;1280;24428;-78
2022/08/10 01:48:38;;;;;;;3.50;2.70;;;;;;;15.22;68.75;99291.61;105958;1280;137206;-78
2022/08/10 01:51:25;;;;;;;5.40;3.00;;;;;;;15.19;68.56;99288.84;105693;1280;22571;-78
2022/08/10 01:54:00;;;;;;;7.80;3.20;;;;;;;15.18;68.69;99293.56;106093;1280;138453;-78
2022/08/10 01:56:31;;;;;;;6.40;2.90;;;;;;;15.17;68.65;99290.45;106185;1279;31468;-78
2022/08/10 01:59:06;;;;;;;4.20;2.80;;;;;;;15.16;68.80;99295.05;105945;1279;138286;-78
2022/08/10 02:01:41;;;;;;;7.10;3.50;;;;;;;15.13;69.03;99294.81;106170;1279;22559;-78
2022/08/10 02:04:10;;;;;;;5.30;3.30;;;;;;;15.09;69.11;99295.31;105794;1279;22704;-78
2022/08/10 02:06:42;;;;;;;4.90;3.50;;;;;;;15.05;68.93;99294.02;106162;1280;137274;-80
2022/08/10 02:09:14;;;;;;;4.90;3.40;;;;;;;15.01;69.13;99293.42;105921;1279;22633;-79
2022/08/10 02:11:43;;;;;;;4.80;2.60;;;;;;;14.97;69.07;99294.20;106744;1280;138216;-79
2022/08/10 02:14:13;;;;;;;5.40;3.00;;;;;;;14.96;69.24;99297.27;106480;1280;22562;-78
2022/08/10 02:16:43;;;;;;;3.10;2.80;;;;;;;14.94;69.34;99302.17;106176;1280;23018;-79
2022/08/10 02:19:15;;;;;;;5.10;2.90;;;;;;;14.93;69.67;99296.67;106339;1277;137338;-79
2022/08/10 02:21:58;;;;;;;4.80;3.10;;;;;;;14.92;69.62;99299.98;106388;1279;22574;-78
2022/08/10 02:24:27;;;;;;;6.30;3.80;;;;;;;14.91;69.57;99302.17;106177;1279;137130;-78
2022/08/10 02:26:55;;;;;;;3.10;2.60;;;;;;;14.90;69.69;99302.70;106235;1279;22826;-78
2022/08/10 02:29:24;;;;;;;5.50;3.00;;;;;;;14.89;69.68;99302.15;105873;1279;137969;-78
2022/08/10 02:31:52;;;;;;;4.00;3.00;;;;;;;14.89;69.76;99299.52;105718;1279;23077;-78
2022/08/10 02:34:20;;;;;;;4.30;3.20;;;;;;;14.90;69.63;99299.53;106216;1279;23916;-78
2022/08/10 02:36:51;;;;;;;4.30;3.10;;;;;;;14.89;69.92;99305.23;106186;1279;137612;-78
2022/08/10 02:39:20;;;;;;;6.60;3.40;;;;;;;14.81;69.63;99306.70;106326;1281;25181;-80
2022/08/10 02:41:54;;;;;;;6.70;3.50;;;;;;;14.74;69.79;99310.27;106144;1279;137202;-78
2022/08/10 02:44:42;;;;;;;8.80;3.40;;;;;;;14.70;70.01;99305.38;106168;1279;24229;-78
2022/08/10 02:47:12;;;;;;;4.40;3.50;;;;;;;14.67;70.24;99307.32;105887;1279;137455;-79
2022/08/10 02:49:47;;;;;;;5.70;3.00;;;;;;;14.65;70.54;99308.81;106489;1279;22538;-78
2022/08/10 02:52:21;;;;;;;9.10;3.60;;;;;;;14.65;70.49;99309.87;106490;1279;26493;-78
2022/08/10 02:54:54;;;;;;;5.90;3.50;;;;;;;14.66;70.64;99312.85;105810;1279;137179;-78
2022/08/10 02:57:26;;;;;;;5.90;3.50;;;;;;;14.65;70.78;99312.38;106297;1279;22534;-79
2022/08/10 02:59:59;;;;;;;5.60;3.40;;;;;;;14.62;70.73;99311.52;105979;1280;137595;-78
2022/08/10 03:02:31;;;;;;;4.70;3.70;;;;;;;14.55;70.57;99314.23;105585;1279;25238;-78
2022/08/10 03:05:06;;;;;;;6.50;3.50;;;;;;;14.46;70.75;99317.20;105787;1279;137362;-78
2022/08/10 03:07:45;;;;;;;5.30;3.10;;;;;;;14.42;71.04;99316.66;105853;1279;24441;-79
2022/08/10 03:10:21;;;;;;;4.60;3.30;;;;;;;14.40;71.04;99321.39;105942;1279;22542;-80
2022/08/10 03:12:56;;;;;;;5.70;3.50;;;;;;;14.40;71.11;99325.13;106136;1279;137229;-79
2022/08/10 03:15:26;;;;;;;4.00;3.10;;;;;;;14.38;71.32;99323.98;106325;1279;24300;-79
2022/08/10 03:17:55;;;;;;;5.70;4.00;;;;;;;14.35;71.37;99327.77;105695;1279;137682;-79
2022/08/10 03:20:23;;;;;;;4.40;3.20;;;;;;;14.32;71.51;99325.46;105924;1280;22657;-80
2022/08/10 03:22:51;;;;;;;5.00;3.40;;;;;;;14.29;71.82;99329.63;106028;1280;137477;-79
2022/08/10 03:25:21;;;;;;;3.80;2.60;;;;;;;14.27;71.99;99327.27;106223;1280;22792;-78
2022/08/10 03:27:49;;;;;;;4.40;3.20;;;;;;;14.29;72.21;99329.37;106030;1278;25241;-78
2022/08/10 03:30:16;;;;;;;4.70;3.30;;;;;;;14.29;72.31;99332.98;106196;1277;137286;-79
2022/08/10 03:32:44;;;;;;;6.70;3.60;;;;;;;14.30;72.33;99335.25;106086;1278;22577;-78
2022/08/10 03:35:12;;;;;;;4.50;3.40;;;;;;;14.30;72.23;99339.75;105981;1278;137447;-79
2022/08/10 03:37:39;;;;;;;5.30;3.20;;;;;;;14.29;72.35;99336.27;105949;1278;23025;-79
2022/08/10 03:40:08;;;;;;;5.80;3.60;;;;;;;14.28;72.44;99339.27;105821;1280;22868;-79
2022/08/10 03:42:38;;;;;;;4.40;3.00;;;;;;;14.28;72.58;99342.23;106404;1279;138270;-79
2022/08/10 03:45:06;;;;;;;7.20;3.30;;;;;;;14.27;72.59;99339.74;106158;1280;24359;-79
2022/08/10 03:47:38;;;;;;;4.60;3.50;;;;;;;14.27;72.66;99340.34;106034;1280;137720;-79
2022/08/10 03:50:06;;;;;;;8.10;4.10;;;;;;;14.27;72.87;99343.03;106174;1278;22564;-79
2022/08/10 03:52:34;;;;;;;7.70;4.20;;;;;;;14.26;72.93;99347.90;106046;1280;22541;-79
2022/08/10 03:55:03;;;;;;;7.20;4.60;;;;;;;14.27;73.27;99344.23;105839;1280;137244;-79
2022/08/10 03:57:31;;;;;;;6.80;4.30;;;;;;;14.27;73.18;99350.75;106326;1278;22564;-79
2022/08/10 03:59:58;;;;;;;7.70;3.60;;;;;;;14.26;73.09;99351.12;105779;1280;137996;-78
2022/08/10 04:02:26;;;;;;;5.00;3.70;;;;;;;14.27;73.02;99351.84;105733;1280;22548;-79
2022/08/10 04:05:07;;;;;;;5.00;3.70;;;;;;;14.28;73.09;99354.67;105475;1280;137865;-79
2022/08/10 04:07:35;;;;;;;5.20;3.60;;;;;;;14.28;73.03;99358.27;105413;1280;23301;-78
2022/08/10 04:10:02;;;;;;;5.50;4.00;;;;;;;14.24;73.09;99354.81;105881;1280;23316;-79
2022/08/10 04:12:29;;;;;;;8.90;3.80;;;;;;;14.22;73.14;99354.23;105924;1280;136996;-79
2022/08/10 04:14:56;;;;;;;6.00;3.60;;;;;;;14.21;73.28;99359.09;105838;1278;24056;-79
2022/08/10 04:17:24;;;;;;;6.30;3.80;;;;;;;14.23;73.27;99360.83;106079;1278;137767;-78
2022/08/10 04:19:52;;;;;;;7.50;4.10;;;;;;;14.25;73.25;99359.55;106071;1280;24305;-79
2022/08/10 04:22:22;;;;;;;6.40;4.00;;;;;;;14.28;73.29;99361.69;106312;1280;24287;-78
2022/08/10 04:24:56;;;;;;;6.40;3.80;;;;;;;14.30;73.40;99365.81;105909;1280;137685;-79
2022/08/10 04:27:23;;;;;;;8.50;4.20;;;;;;;14.33;73.46;99366.48;105958;1279;25569;-78
2022/08/10 04:29:54;;;;;;;5.90;3.70;;;;;;;14.35;73.33;99366.73;106311;1279;137153;-78
2022/08/10 04:32:23;;;;;;;6.00;3.90;;;;;;;14.38;73.18;99370.30;106045;1279;22582;-78
2022/08/10 04:34:54;;;;;;;7.20;4.00;;;;;;;14.42;73.37;99368.01;105863;1279;138872;-78
2022/08/10 04:37:37;;;;;;;7.10;4.30;;;;;;;14.44;73.17;99368.25;106241;1279;24245;-78
2022/08/10 04:40:05;;;;;;;6.20;4.50;;;;;;;14.45;73.16;99365.91;105837;1280;24326;-79
2022/08/10 04:42:32;;;;;;;8.00;4.30;;;;;;;14.49;73.28;99368.08;106502;1280;137104;-78
2022/08/10 04:44:58;;;;;;;10.40;4.40;;;;;;;14.53;73.34;99371.65;105926;1280;22538;-78
2022/08/10 04:47:25;;;;;;;6.60;4.30;;;;;;;14.57;73.37;99371.02;105795;1280;137631;-78
2022/08/10 04:49:52;;;;;;;5.20;4.00;;;;;;;14.61;73.30;99373.29;106003;1279;30347;-78
2022/08/10 04:52:19;;;;;;;6.40;4.30;;;;;;;14.67;73.44;99374.04;105820;1279;22575;-78
2022/08/10 04:55:00;;;;;;;7.90;4.20;;;;;;;14.75;73.42;99376.03;105745;1279;137629;-78
2022/08/10 04:57:27;;;;;;;7.50;4.60;;;;;;;14.82;73.33;99377.45;106005;1279;22567;-78
2022/08/10 04:59:54;;;;;;;10.30;5.40;;;;;;;14.89;73.26;99380.54;105768;1280;137257;-78
2022/08/10 05:02:21;;;;;;;9.50;4.90;;;;;;;14.95;73.12;99380.08;105824;1279;22560;-78
2022/08/10 05:04:48;;;;;;;10.20;5.90;;;;;;;15.02;73.01;99382.14;105813;1280;137294;-78
2022/08/10 05:07:16;;;;;;;6.40;5.00;;;;;;;15.07;73.02;99384.32;106147;1280;24291;-78
2022/08/10 05:09:56;;;;;;;10.70;5.00;;;;;;;15.12;73.11;99382.03;106134;1280;24239;-78
2022/08/10 05:12:23;;;;;;;8.40;5.10;;;;;;;15.19;72.79;99387.46;106132;1279;138102;-78
2022/08/10 05:14:51;;;;;;;8.10;4.70;;;;;;;15.27;72.85;99387.18;106099;1279;22557;-78
2022/08/10 05:17:18;;;;;;;6.80;4.90;;;;;;;15.32;72.92;99385.33;105872;1279;137465;-78
2022/08/10 05:19:45;;;;;;;12.90;5.10;;;;;;;15.36;73.00;99385.66;105782;1279;24401;-78
2022/08/10 05:22:12;;;;;;;9.50;5.30;;;;;;;15.41;72.74;99386.66;105860;1280;22541;-78
2022/08/10 05:24:39;;;;;;;8.50;4.80;;;;;;;15.45;72.45;99385.50;105827;1280;138214;-77
2022/08/10 05:27:20;;;;;;;8.20;4.40;;;;;;;15.50;72.76;99381.63;105958;1279;23334;-79
2022/08/10 05:30:02;;;;;;;7.40;4.60;;;;;;;15.58;72.67;99382.05;105935;1280;137704;-78
2022/08/10 05:32:43;;;;;;;6.80;5.10;;;;;;;15.66;72.41;99383.20;105921;1280;22761;-78
2022/08/10 05:35:10;;;;;;;9.60;5.40;;;;;;;15.73;72.90;99380.70;105989;1280;138937;-78
2022/08/10 05:37:38;;;;;;;8.60;5.00;;;;;;;15.82;72.81;99378.30;105758;1280;25340;-78
2022/08/10 05:40:21;;;;;;;9.00;5.40;;;;;;;15.90;72.28;99378.51;105786;1279;22791;-80
2022/08/10 05:42:48;;;;;;;7.90;5.30;;;;;;;15.98;71.81;99374.52;105929;1279;137061;-80
2022/08/10 05:45:21;;;;;;;8.10;4.30;;;;;;;16.06;71.79;99371.65;106144;1279;25344;-80
2022/08/10 05:47:47;;;;;;;7.90;5.40;;;;;;;16.15;71.51;99370.48;105812;1279;138443;-80
2022/08/10 05:50:20;;;;;;;6.10;4.70;;;;;;;16.24;71.41;99369.96;106050;1280;22561;-79
2022/08/10 05:52:48;;;;;;;8.10;5.30;;;;;;;16.32;71.19;99371.63;105884;1279;25318;-79
2022/08/10 05:55:15;;;;;;;6.70;4.70;;;;;;;16.40;71.16;99376.16;105844;1280;22606;-80
2022/08/10 05:57:42;;;;;;;7.20;5.60;;;;;;;16.48;70.54;99372.23;106448;1279;24380;-79
2022/08/10 06:00:25;;;;;;;6.60;4.90;;;;;;;16.57;70.63;99370.20;105535;1280;137781;-78
2022/08/10 06:03:02;;;;;;;5.90;4.60;;;;;;;16.64;70.46;99374.17;105932;1280;22537;-77
2022/08/10 06:05:45;;;;;;;6.80;4.70;;;;;;;16.74;70.02;99377.83;106086;1279;138259;-77
2022/08/10 06:08:16;;;;;;;7.80;4.50;;;;;;;16.83;69.97;99373.17;106044;1279;25322;-77
2022/08/10 06:10:45;;;;;;;7.40;4.00;;;;;;;16.93;69.68;99373.20;106067;1280;25352;-77
2022/08/10 06:15:57;;;;;;;6.30;4.20;;;;;;;17.12;69.38;99374.22;105686;1280;22562;-77
2022/08/10 06:18:38;;;;;;;6.00;4.10;;;;;;;17.20;68.96;99374.77;105554;1281;137341;-77
2022/08/10 06:21:08;;;;;;;8.90;4.50;;;;;;;17.28;68.85;99376.45;105844;1280;22563;-77
2022/08/10 06:23:36;;;;;;;5.30;3.90;;;;;;;17.35;68.61;99377.11;106598;1279;137608;-78
2022/08/10 06:26:17;;;;;;;5.90;4.20;;;;;;;17.41;67.86;99378.80;105853;1279;23965;-77
2022/08/10 06:28:51;;;;;;;7.40;4.30;;;;;;;17.49;67.66;99374.60;105714;1279;24297;-76
2022/08/10 06:31:20;;;;;;;6.00;3.90;;;;;;;17.57;67.44;99378.11;106058;1279;24228;-77
2022/08/10 06:33:50;;;;;;;9.70;4.50;;;;;;;17.67;67.27;99377.75;105467;1280;23104;-77
2022/08/10 06:36:33;;;;;;;7.70;4.20;;;;;;;17.77;67.18;99379.06;106146;1280;137226;-77
2022/08/10 06:39:00;;;;;;;6.20;3.70;;;;;;;17.85;66.85;99376.14;105933;1280;24018;-76
2022/08/10 06:41:32;;;;;;;7.90;4.20;;;;;;;17.93;66.35;99377.01;106362;1278;137546;-76
2022/08/10 06:44:04;;;;;;;6.70;4.10;;;;;;;18.02;66.22;99375.48;106316;1277;24222;-76
2022/08/10 06:46:36;;;;;;;5.10;3.90;;;;;;;18.10;66.34;99373.46;106354;1278;24225;-77
2022/08/10 06:49:06;;;;;;;5.50;4.20;;;;;;;18.20;65.86;99376.74;105990;1277;137449;-77
2022/08/10 06:51:37;;;;;;;4.80;3.70;;;;;;;18.28;65.36;99378.52;106270;1279;22571;-77
2022/08/10 06:54:07;;;;;;;6.80;3.80;;;;;;;18.35;64.94;99374.90;106226;1280;137122;-76
2022/08/10 06:56:39;;;;;;;8.00;3.50;;;;;;;18.44;64.76;99369.21;105866;1280;25464;-77
2022/08/10 06:59:23;;;;;;;6.30;3.90;;;;;;;18.53;64.61;99369.38;106042;1280;137321;-77
2022/08/10 07:01:57;;;;;;;5.00;3.10;;;;;;;18.62;64.56;99370.32;105938;1278;22655;-77
2022/08/10 07:04:37;;;;;;;4.90;3.00;;;;;;;18.71;64.31;99370.89;106682;1278;23974;-76
2022/08/10 07:07:06;;;;;;;3.80;3.40;;;;;;;18.81;63.94;99368.90;105904;1280;137376;-76
2022/08/10 07:09:50;;;;;;;6.30;3.40;;;;;;;18.90;63.76;99366.55;105861;1280;22569;-77
2022/08/10 07:12:19;;;;;;;4.10;3.50;;;;;;;19.01;63.32;99363.98;106356;1279;137122;-76
2022/08/10 07:14:50;;;;;;;8.30;3.50;;;;;;;19.12;63.42;99364.79;106154;1280;25311;-77
2022/08/10 07:17:23;;;;;;;4.10;3.20;;;;;;;19.22;62.37;99364.88;105978;1280;137512;-77
2022/08/10 07:19:58;;;;;;;4.60;2.90;;;;;;;19.30;61.75;99364.42;106088;1280;25354;-77
2022/08/10 07:22:29;;;;;;;4.20;2.70;;;;;;;19.40;61.07;99366.82;106114;1280;24119;-77
2022/08/10 07:24:58;;;;;;;4.60;2.80;;;;;;;19.47;61.17;99367.41;106114;1279;137302;-77
2022/08/10 07:27:27;;;;;;;5.00;2.80;;;;;;;19.58;60.23;99369.91;106076;1279;24264;-77
2022/08/10 07:29:56;;;;;;;3.00;2.30;;;;;;;19.67;59.44;99367.72;106051;1279;137753;-77
2022/08/10 07:32:40;;;;;;;4.00;2.40;;;;;;;19.78;59.01;99366.27;105823;1279;22537;-77
2022/08/10 07:35:12;;;;;;;3.70;2.50;;;;;;;19.89;58.77;99364.67;105750;1279;137720;-77
2022/08/10 07:37:40;;;;;;;4.00;2.60;;;;;;;20.01;58.50;99365.00;105856;1279;24255;-77
2022/08/10 07:40:09;;;;;;;3.60;2.60;;;;;;;20.11;58.20;99362.44;105994;1281;22643;-76
2022/08/10 07:42:57;;;;;;;5.20;2.90;;;;;;;20.22;58.32;99360.66;106160;1279;137274;-76
2022/08/10 07:45:27;;;;;;;4.00;3.00;;;;;;;20.31;57.02;99366.13;106050;1280;23925;-76
2022/08/10 07:47:59;;;;;;;3.10;2.50;;;;;;;20.39;57.06;99360.92;105901;1280;137877;-77
2022/08/10 07:50:41;;;;;;;5.90;2.50;;;;;;;20.46;56.75;99362.91;105806;1280;22629;-77
2022/08/10 07:53:14;;;;;;;3.70;2.20;;;;;;;20.56;55.50;99365.94;106150;1280;137841;-77
2022/08/10 07:55:45;;;;;;;5.30;2.70;;;;;;;20.65;55.13;99362.70;105885;1280;23961;-77
2022/08/10 07:58:17;;;;;;;5.40;2.60;;;;;;;20.77;55.66;99360.38;106289;1278;22694;-77
2022/08/10 08:00:47;;;;;;;3.40;2.60;;;;;;;20.92;55.67;99365.73;105880;1280;137556;-78
2022/08/10 08:03:15;;;;;;;4.70;2.80;;;;;;;21.00;54.27;99363.54;106338;1280;22559;-77
2022/08/10 08:05:44;;;;;;;2.90;2.50;;;;;;;21.00;54.33;99368.48;106351;1280;137069;-78
2022/08/10 08:08:13;;;;;;;;;;;;;;;21.01;54.26;99368.97;106170;1280;25353;-77
2022/08/10 08:10:41;;;;;;;5.80;2.20;;;;;;;20.99;54.25;99363.50;105980;1280;24078;-77
2022/08/10 08:13:10;;;;;;;3.80;2.30;;;;;;;20.98;53.15;99361.13;106176;1280;137466;-77
2022/08/10 08:15:38;;;;;;;3.00;2.50;;;;;;;21.02;52.15;99362.64;106223;1280;25408;-78
2022/08/10 08:18:22;;;;;;;3.80;1.90;;;;;;;21.14;51.74;99363.52;105974;1280;137139;-77
2022/08/10 08:20:50;;;;;;;2.60;1.80;;;;;;;21.26;51.58;99359.02;106135;1278;23722;-77
2022/08/10 08:23:18;;;;;;;2.60;2.00;;;;;;;21.39;51.20;99353.61;106051;1277;137391;-77
2022/08/10 08:25:47;;;;;;;3.90;1.80;;;;;;;21.49;49.77;99351.41;106154;1280;24434;-76
2022/08/10 08:28:15;;;;;;;1.90;1.60;;;;;;;21.52;49.89;99349.16;105901;1280;22717;-76
2022/08/10 08:30:44;;;;;;;2.90;1.50;;;;;;;21.61;49.51;99346.89;106594;1280;137268;-76
2022/08/10 08:33:15;;;;;;;3.00;1.60;;;;;;;21.73;48.60;99343.18;106389;1277;24544;-76
2022/08/10 08:35:43;;;;;;;1.60;1.30;;;;;;;21.88;48.26;99336.95;106201;1278;137429;-76
2022/08/10 08:38:12;;;;;;;3.90;1.70;;;;;;;22.02;48.06;99338.03;106050;1280;22699;-76
2022/08/10 08:40:46;;;;;;;1.80;1.40;;;;;;;22.16;47.57;99336.88;104730;1280;1872929;-76
2022/08/10 08:43:31;;;;;;;2.70;1.30;;;;;;;22.30;46.94;99335.95;106198;1278;25253;-78
2022/08/10 08:46:18;;;;;;;2.40;1.60;;;;;;;22.47;46.50;99335.10;105823;1280;24895;-77
2022/08/10 08:49:05;;;;;;;4.30;1.50;;;;;;;22.60;46.48;99327.71;105797;1279;137153;-77
2022/08/10 08:51:39;;;;;;;3.10;1.60;;;;;;;22.74;46.99;99330.31;105906;1281;22566;-77
2022/08/10 08:54:37;;;;;;;2.20;1.70;;;;;;;22.91;46.21;99321.17;105631;1280;137101;-77
2022/08/10 08:57:22;;;;;;;2.00;1.50;;;;;;;23.06;45.87;99322.27;106087;1280;24215;-77
2022/08/10 08:59:54;;;;;;;1.80;1.30;;;;;;;23.22;46.19;99318.73;105731;1280;137699;-77
2022/08/10 09:02:49;;;;;;;4.00;1.70;;;;;;;23.39;45.53;99316.58;105822;1281;22743;-77
2022/08/10 09:05:32;;;;;;;2.00;1.50;;;;;;;23.53;44.96;99316.90;105748;1278;137467;-76
2022/08/10 09:08:35;;;;;;;2.30;1.40;;;;;;;23.65;45.04;99316.97;106185;1280;24228;-75
2022/08/10 09:11:22;;;;;;;3.50;1.60;;;;;;;23.81;45.35;99313.92;106175;1278;137375;-77
2022/08/10 09:14:10;;;;;;;3.70;1.80;;;;;;;23.96;44.28;99311.66;105932;1278;25356;-78
2022/08/10 09:16:52;;;;;;;2.40;1.70;;;;;;;24.03;43.39;99309.27;106139;1281;22558;-77
2022/08/10 09:20:22;;;;;;;1.70;1.60;;;;;;;24.04;42.93;99314.04;105802;1281;25311;-77
2022/08/10 09:23:00;;;;;;;2.40;1.30;;;;;;;24.09;43.34;99317.65;105359;1281;137545;-77
2022/08/10 09:25:36;;;;;;;3.70;1.40;;;;;;;24.18;42.99;99317.17;106025;1280;23079;-76
2022/08/10 09:28:10;;;;;;;1.60;1.30;;;;;;;24.18;42.29;99318.55;106036;1280;25400;-76
2022/08/10 09:30:46;;;;;;;4.20;1.80;;;;;;;24.25;41.77;99316.31;106452;1281;137264;-77
2022/08/10 09:33:44;;;;;;;2.30;1.50;;;;;;;24.42;42.26;99314.80;105816;1280;23383;-76
2022/08/10 09:36:39;;;;;;;5.00;1.50;;;;;;;24.57;41.10;99313.08;106003;1277;137150;-75
2022/08/10 09:39:34;;;;;;;1.90;1.40;;;;;;;24.73;41.44;99305.48;106004;1278;22535;-76
2022/08/10 09:42:07;;;;;;;6.90;1.90;;;;;;;24.99;41.42;99303.52;106095;1277;137332;-77
2022/08/10 09:45:03;;;;;;;2.40;1.50;;;;;;;25.13;40.21;99303.45;106153;1278;25244;-76
2022/08/10 09:48:12;;;;;;;2.10;1.60;;;;;;;25.22;39.72;99303.42;105847;1278;137359;-75
2022/08/10 09:50:59;;;;;;;4.00;2.00;;;;;;;25.25;39.46;99302.86;106201;1277;26683;-75
2022/08/10 09:53:54;;;;;;;3.80;1.40;;;;;;;25.28;39.66;99296.89;106157;1277;137557;-75
2022/08/10 09:56:36;;;;;;;2.90;1.70;;;;;;;25.40;39.68;99294.46;106097;1277;24285;-75
2022/08/10 09:59:37;;;;;;;2.30;1.40;;;;;;;25.44;39.49;99292.18;106215;1280;137315;-77
2022/08/10 10:02:30;;;;;;;2.20;1.50;;;;;;;25.28;38.84;99291.57;105831;1281;25511;-77
2022/08/10 10:05:25;;;;;;;2.70;1.40;;;;;;;25.19;39.02;99286.71;105727;1281;138115;-76
2022/08/10 10:08:05;;;;;;;3.50;1.50;;;;;;;25.27;39.09;99287.92;105653;1277;22613;-76
2022/08/10 10:10:39;;;;;;;2.20;1.70;;;;;;;25.37;39.90;99282.23;105748;1277;22572;-76
2022/08/10 10:13:14;;;;;;;3.50;1.30;;;;;;;25.61;40.33;99281.66;105955;1277;137554;-77
2022/08/10 10:15:58;;;;;;;3.00;1.50;;;;;;;25.84;38.96;99274.85;105983;1278;22503;-77
2022/08/10 10:18:28;;;;;;;1.90;1.30;;;;;;;26.05;38.87;99274.02;105831;1278;137303;-77
2022/08/10 10:21:14;;;;;;;4.00;1.80;;;;;;;26.19;38.28;99276.41;105995;1278;22615;-76
2022/08/10 10:24:04;;;;;;;1.40;1.30;;;;;;;26.09;37.56;99270.91;106083;1278;137206;-76
2022/08/10 10:26:38;;;;;;;2.70;1.60;;;;;;;25.99;37.33;99275.04;105657;1281;25262;-76
2022/08/10 10:29:20;;;;;;;1.50;1.40;;;;;;;26.01;37.78;99274.13;105781;1280;137550;-76
2022/08/10 10:31:53;;;;;;;1.90;1.70;;;;;;;26.20;37.72;99274.73;106172;1281;24233;-76
2022/08/10 10:34:37;;;;;;;1.90;1.40;;;;;;;26.36;38.64;99270.72;105781;1281;23315;-76
2022/08/10 10:37:11;;;;;;;2.40;1.60;;;;;;;26.57;37.52;99273.41;106261;1281;137631;-77
2022/08/10 10:39:54;;;;;;;2.20;1.40;;;;;;;26.73;36.48;99269.66;105860;1281;22580;-76
2022/08/10 10:42:42;;;;;;;2.10;1.50;;;;;;;26.84;35.94;99267.81;106161;1279;137816;-77
2022/08/10 10:45:49;;;;;;;2.70;1.30;;;;;;;27.02;35.91;99262.19;106312;1279;22603;-76
2022/08/10 10:48:40;;;;;;;2.90;1.50;;;;;;;27.16;36.21;99260.67;105731;1281;137311;-78
2022/08/10 10:51:28;;;;;;;2.90;1.90;;;;;;;27.01;36.42;99261.01;105853;1281;22555;-77
2022/08/10 10:54:13;;;;;;;3.10;1.50;;;;;;;26.73;35.97;99261.44;105872;1281;137535;-77
2022/08/10 10:57:04;;;;;;;2.30;1.70;;;;;;;26.76;35.93;99260.67;105657;1278;22710;-77
2022/08/10 11:00:07;;;;;;;5.20;1.90;;;;;;;26.84;36.08;99258.41;105980;1279;137634;-77
2022/08/10 11:02:57;;;;;;;3.20;1.90;;;;;;;26.97;36.03;99249.84;105599;1281;22573;-76
2022/08/10 11:06:05;;;;;;;2.90;1.70;;;;;;;27.21;35.80;99245.48;105924;1281;138069;-77
2022/08/10 11:09:07;;;;;;;4.70;1.50;;;;;;;27.53;35.23;99249.88;105977;1281;30737;-76
2022/08/10 11:11:38;;;;;;;2.70;1.60;;;;;;;27.60;34.98;99244.50;105984;1280;137733;-77
2022/08/10 11:14:15;;;;;;;2.50;1.70;;;;;;;27.69;34.21;99243.58;106079;1281;22551;-77
2022/08/10 11:17:11;;;;;;;2.50;1.50;;;;;;;27.89;34.68;99239.46;106283;1281;23812;-78
2022/08/10 11:19:53;;;;;;;2.10;1.60;;;;;;;28.12;34.13;99240.20;105976;1280;31765;-77
2022/08/10 11:22:33;;;;;;;2.40;1.10;;;;;;;28.30;33.58;99240.83;106130;1281;22559;-76
2022/08/10 11:25:35;;;;;;;1.60;1.30;;;;;;;28.41;32.61;99237.98;105980;1281;22563;-76
2022/08/10 11:28:17;;;;;;;1.80;1.60;;;;;;;28.47;33.24;99239.46;105805;1281;22596;-76
2022/08/10 11:30:53;;;;;;;3.40;1.70;;;;;;;28.59;33.04;99240.61;105768;1281;137339;-75
2022/08/10 11:33:41;;;;;;;2.70;1.40;;;;;;;28.69;32.50;99235.37;105639;1279;22597;-76
2022/08/10 11:36:42;;;;;;;5.60;1.90;;;;;;;28.81;32.20;99232.82;105564;1281;137200;-75
2022/08/10 11:39:47;;;;;;;3.00;1.70;;;;;;;28.79;31.67;99232.41;106183;1279;22571;-76
2022/08/10 11:42:30;;;;;;;2.90;1.40;;;;;;;28.80;32.44;99231.50;106156;1279;137159;-76
2022/08/10 11:45:16;;;;;;;2.60;1.40;;;;;;;28.89;32.00;99227.39;105827;1279;25409;-76
2022/08/10 11:48:31;;;;;;;2.70;1.30;;;;;;;28.94;31.93;99226.38;105752;1279;137568;-77
2022/08/10 11:51:04;;;;;;;2.80;1.40;;;;;;;29.17;31.95;99224.66;105988;1279;22569;-77
2022/08/10 11:53:52;;;;;;;4.10;1.50;;;;;;;29.14;30.76;99223.12;105777;1279;137627;-76
2022/08/10 11:56:57;;;;;;;2.60;1.40;;;;;;;28.68;31.22;99227.95;105686;1279;25296;-76
2022/08/10 12:02:14;;;;;;;4.50;1.60;;;;;;;27.99;33.19;99229.38;105749;1280;22559;-77
2022/08/10 12:04:48;;;;;;;6.60;1.90;;;;;;;27.56;33.70;99230.84;105933;1281;25494;-75
2022/08/10 12:07:31;;;;;;;5.20;1.60;;;;;;;27.56;34.49;99230.86;105988;1279;24256;-76